sensor_id;sensor_type;location;lat;lon;timestamp;pressure;altitude;pressure_sealevel;temperature;humidity
75231;BME280;63814;50.118;8.714;2022-11-15T00:02:10;99980.88;;;8.46;81.67
75231;BME280;63814;50.118;8.714;2022-11-15T00:04:36;99975.97;;;8.40;82.12
75231;BME280;63814;50.118;8.714;2022-11-15T00:07:03;99979.00;;;8.32;82.27
75231;BME280;63814;50.118;8.714;2022-11-15T00:09:29;99993.94;;;8.30;82.52
75231;BME280;63814;50.118;8.714;2022-11-15T00:11:56;99972.72;;;8.18;82.73
75231;BME280;63814;50.118;8.714;2022-11-15T00:14:23;99982.94;;;8.23;82.63
75231;BME280;63814;50.118;8.714;2022-11-15T00:16:50;99982.94;;;8.23;82.87
75231;BME280;63814;50.118;8.714;2022-11-15T00:19:16;99987.16;;;8.26;82.77
75231;BME280;63814;50.118;8.714;2022-11-15T00:21:43;99971.56;;;8.24;82.46
75231;BME280;63814;50.118;8.714;2022-11-15T00:24:09;99980.19;;;8.26;83.33
75231;BME280;63814;50.118;8.714;2022-11-15T00:26:36;99973.91;;;8.29;82.72
75231;BME280;63814;50.118;8.714;2022-11-15T00:29:02;99973.84;;;8.30;82.69
75231;BME280;63814;50.118;8.714;2022-11-15T00:31:30;99972.16;;;8.29;82.51
75231;BME280;63814;50.118;8.714;2022-11-15T00:33:57;99968.56;;;8.32;82.51
75231;BME280;63814;50.118;8.714;2022-11-15T00:36:23;99969.47;;;8.31;82.26
75231;BME280;63814;50.118;8.714;2022-11-15T00:38:49;99977.22;;;8.32;82.81
75231;BME280;63814;50.118;8.714;2022-11-15T00:41:16;99969.56;;;8.29;82.88
75231;BME280;63814;50.118;8.714;2022-11-15T00:43:42;99967.00;;;8.28;82.69
75231;BME280;63814;50.118;8.714;2022-11-15T00:46:09;99960.84;;;8.29;82.66
75231;BME280;63814;50.118;8.714;2022-11-15T00:48:37;99958.25;;;8.29;82.65
75231;BME280;63814;50.118;8.714;2022-11-15T00:51:04;99964.50;;;8.26;82.67
75231;BME280;63814;50.118;8.714;2022-11-15T00:53:30;99961.91;;;8.26;82.85
75231;BME280;63814;50.118;8.714;2022-11-15T00:55:57;99965.19;;;8.30;82.72
75231;BME280;63814;50.118;8.714;2022-11-15T00:58:23;99959.03;;;8.31;82.64
75231;BME280;63814;50.118;8.714;2022-11-15T01:00:49;99955.75;;;8.27;82.94
75231;BME280;63814;50.118;8.714;2022-11-15T01:03:16;99947.28;;;8.22;83.13
75231;BME280;63814;50.118;8.714;2022-11-15T01:05:44;99950.09;;;8.35;82.68
75231;BME280;63814;50.118;8.714;2022-11-15T01:08:12;99946.81;;;8.31;82.86
75231;BME280;63814;50.118;8.714;2022-11-15T01:10:39;99946.22;;;8.26;83.04
75231;BME280;63814;50.118;8.714;2022-11-15T01:13:05;99938.53;;;8.23;83.24
75231;BME280;63814;50.118;8.714;2022-11-15T01:15:32;99940.81;;;8.29;82.92
75231;BME280;63814;50.118;8.714;2022-11-15T01:17:58;99937.59;;;8.24;83.06
75231;BME280;63814;50.118;8.714;2022-11-15T01:20:25;99934.22;;;8.22;83.14
75231;BME280;63814;50.118;8.714;2022-11-15T01:22:52;99938.59;;;8.22;83.47
75231;BME280;63814;50.118;8.714;2022-11-15T01:25:19;99937.09;;;8.17;83.44
75231;BME280;63814;50.118;8.714;2022-11-15T01:27:45;99937.09;;;8.17;83.42
75231;BME280;63814;50.118;8.714;2022-11-15T01:30:12;99939.63;;;8.19;83.50
75231;BME280;63814;50.118;8.714;2022-11-15T01:32:38;99938.69;;;8.20;83.19
75231;BME280;63814;50.118;8.714;2022-11-15T01:35:05;99934.47;;;8.17;83.49
75231;BME280;63814;50.118;8.714;2022-11-15T01:37:32;99933.03;;;8.12;83.53
75231;BME280;63814;50.118;8.714;2022-11-15T01:40:00;99932.88;;;8.15;83.37
75231;BME280;63814;50.118;8.714;2022-11-15T01:42:26;99934.63;;;8.14;83.16
75231;BME280;63814;50.118;8.714;2022-11-15T01:44:53;99934.72;;;8.13;83.30
75231;BME280;63814;50.118;8.714;2022-11-15T01:47:23;99934.72;;;8.13;83.19
75231;BME280;63814;50.118;8.714;2022-11-15T01:49:56;99926.78;;;8.14;83.33
75231;BME280;63814;50.118;8.714;2022-11-15T01:52:25;99921.56;;;8.14;83.22
75231;BME280;63814;50.118;8.714;2022-11-15T01:54:57;99910.44;;;8.11;83.42
75231;BME280;63814;50.118;8.714;2022-11-15T01:57:27;99913.72;;;8.14;83.36
75231;BME280;63814;50.118;8.714;2022-11-15T01:59:54;99910.28;;;8.14;83.29
75231;BME280;63814;50.118;8.714;2022-11-15T02:02:21;99914.59;;;8.15;83.55
75231;BME280;63814;50.118;8.714;2022-11-15T02:04:47;99800.03;;;7.41;82.98
75231;BME280;63814;50.118;8.714;2022-11-15T02:07:16;99912.59;;;8.20;83.24
75231;BME280;63814;50.118;8.714;2022-11-15T02:09:44;99909.88;;;8.22;83.28
75231;BME280;63814;50.118;8.714;2022-11-15T02:12:13;99917.38;;;8.28;83.15
75231;BME280;63814;50.118;8.714;2022-11-15T02:14:43;99902.56;;;8.28;83.30
75231;BME280;63814;50.118;8.714;2022-11-15T02:17:21;99903.16;;;8.34;82.97
75231;BME280;63814;50.118;8.714;2022-11-15T02:23:00;99886.25;;;8.41;82.99
75231;BME280;63814;50.118;8.714;2022-11-15T02:25:38;99871.91;;;8.32;82.85
75231;BME280;63814;50.118;8.714;2022-11-15T02:28:23;99880.84;;;8.44;82.75
75231;BME280;63814;50.118;8.714;2022-11-15T02:30:55;99802.44;;;7.96;82.64
75231;BME280;63814;50.118;8.714;2022-11-15T02:33:30;99862.53;;;8.44;82.60
75231;BME280;63814;50.118;8.714;2022-11-15T02:36:05;99868.53;;;8.46;82.69
75231;BME280;63814;50.118;8.714;2022-11-15T02:38:43;99861.63;;;8.45;82.71
75231;BME280;63814;50.118;8.714;2022-11-15T02:41:15;99862.38;;;8.47;82.56
75231;BME280;63814;50.118;8.714;2022-11-15T02:43:46;99861.47;;;8.48;82.75
75231;BME280;63814;50.118;8.714;2022-11-15T02:46:28;99864.97;;;8.47;82.61
75231;BME280;63814;50.118;8.714;2022-11-15T02:49:16;99812.91;;;8.12;82.70
75231;BME280;63814;50.118;8.714;2022-11-15T02:51:45;99869.44;;;8.45;82.74
75231;BME280;63814;50.118;8.714;2022-11-15T02:54:22;99857.84;;;8.35;82.93
75231;BME280;63814;50.118;8.714;2022-11-15T02:56:51;99870.72;;;8.38;82.86
75231;BME280;63814;50.118;8.714;2022-11-15T02:59:32;99862.94;;;8.36;82.72
75231;BME280;63814;50.118;8.714;2022-11-15T03:02:14;99865.75;;;8.33;82.60
75231;BME280;63814;50.118;8.714;2022-11-15T03:04:50;99859.09;;;8.27;82.71
75231;BME280;63814;50.118;8.714;2022-11-15T03:07:24;99854.69;;;8.28;82.66
75231;BME280;63814;50.118;8.714;2022-11-15T03:09:54;99854.00;;;8.24;82.61
75231;BME280;63814;50.118;8.714;2022-11-15T03:12:27;99849.72;;;8.23;82.92
75231;BME280;63814;50.118;8.714;2022-11-15T03:14:58;99844.75;;;8.18;82.94
75231;BME280;63814;50.118;8.714;2022-11-15T03:17:30;99849.28;;;8.15;82.55
75231;BME280;63814;50.118;8.714;2022-11-15T03:20:01;99844.41;;;8.09;82.60
75231;BME280;63814;50.118;8.714;2022-11-15T03:22:33;99846.00;;;8.11;82.35
75231;BME280;63814;50.118;8.714;2022-11-15T03:25:05;99843.41;;;8.11;82.79
75231;BME280;63814;50.118;8.714;2022-11-15T03:27:36;99848.00;;;8.06;82.75
75231;BME280;63814;50.118;8.714;2022-11-15T03:30:07;99853.16;;;8.08;82.54
75231;BME280;63814;50.118;8.714;2022-11-15T03:32:38;99858.56;;;8.04;82.60
75231;BME280;63814;50.118;8.714;2022-11-15T03:35:08;99843.03;;;8.01;82.46
75231;BME280;63814;50.118;8.714;2022-11-15T03:37:38;99849.97;;;8.18;81.85
75231;BME280;63814;50.118;8.714;2022-11-15T03:40:07;99863.28;;;8.14;82.52
75231;BME280;63814;50.118;8.714;2022-11-15T03:42:38;99856.63;;;8.08;82.42
75231;BME280;63814;50.118;8.714;2022-11-15T03:45:13;99861.16;;;8.04;82.63
75231;BME280;63814;50.118;8.714;2022-11-15T03:47:44;99848.56;;;7.95;82.78
75231;BME280;63814;50.118;8.714;2022-11-15T03:50:13;99843.44;;;7.94;82.78
75231;BME280;63814;50.118;8.714;2022-11-15T03:52:42;99855.16;;;8.02;83.13
75231;BME280;63814;50.118;8.714;2022-11-15T03:55:13;99856.84;;;8.03;82.81
75231;BME280;63814;50.118;8.714;2022-11-15T03:57:41;99806.44;;;7.69;82.85
75231;BME280;63814;50.118;8.714;2022-11-15T04:00:09;99842.28;;;7.99;82.89
75231;BME280;63814;50.118;8.714;2022-11-15T04:02:36;99855.16;;;8.02;82.83
75231;BME280;63814;50.118;8.714;2022-11-15T04:05:04;99863.78;;;8.04;82.98
75231;BME280;63814;50.118;8.714;2022-11-15T04:07:30;99861.91;;;8.07;83.12
75231;BME280;63814;50.118;8.714;2022-11-15T04:09:57;99864.34;;;8.10;83.14
75231;BME280;63814;50.118;8.714;2022-11-15T04:12:31;99855.00;;;8.05;83.07
75231;BME280;63814;50.118;8.714;2022-11-15T04:14:59;99868.66;;;8.11;83.15
75231;BME280;63814;50.118;8.714;2022-11-15T04:17:40;99863.28;;;8.14;83.07
75231;BME280;63814;50.118;8.714;2022-11-15T04:20:11;99860.59;;;8.15;82.98
75231;BME280;63814;50.118;8.714;2022-11-15T04:22:56;99862.28;;;8.16;82.96
75231;BME280;63814;50.118;8.714;2022-11-15T04:25:41;99845.75;;;8.16;82.81
75231;BME280;63814;50.118;8.714;2022-11-15T04:28:08;99853.25;;;8.22;82.91
75231;BME280;63814;50.118;8.714;2022-11-15T04:30:35;99849.56;;;8.26;83.00
75231;BME280;63814;50.118;8.714;2022-11-15T04:33:01;99852.06;;;8.28;83.29
75231;BME280;63814;50.118;8.714;2022-11-15T04:35:29;99842.50;;;8.28;82.92
75231;BME280;63814;50.118;8.714;2022-11-15T04:37:56;99836.34;;;8.29;82.87
75231;BME280;63814;50.118;8.714;2022-11-15T04:40:22;99837.19;;;8.30;83.15
75231;BME280;63814;50.118;8.714;2022-11-15T04:42:49;99829.56;;;8.25;83.28
75231;BME280;63814;50.118;8.714;2022-11-15T04:45:15;99836.34;;;8.29;83.43
75231;BME280;63814;50.118;8.714;2022-11-15T04:47:43;99832.09;;;8.27;83.04
75231;BME280;63814;50.118;8.714;2022-11-15T04:50:11;99782.56;;;7.93;83.06
75231;BME280;63814;50.118;8.714;2022-11-15T04:52:40;99823.69;;;8.22;83.30
75231;BME280;63814;50.118;8.714;2022-11-15T04:55:07;99823.59;;;8.23;83.10
75231;BME280;63814;50.118;8.714;2022-11-15T04:57:34;99821.84;;;8.24;82.85
75231;BME280;63814;50.118;8.714;2022-11-15T05:00:01;99821.72;;;8.25;83.33
75231;BME280;63814;50.118;8.714;2022-11-15T05:02:28;99821.72;;;8.25;83.10
75231;BME280;63814;50.118;8.714;2022-11-15T05:05:15;99818.13;;;8.28;83.08
75231;BME280;63814;50.118;8.714;2022-11-15T05:07:42;99826.88;;;8.27;82.99
75231;BME280;63814;50.118;8.714;2022-11-15T05:10:09;99820.84;;;8.26;83.09
75231;BME280;63814;50.118;8.714;2022-11-15T05:12:35;99815.94;;;8.20;83.02
75231;BME280;63814;50.118;8.714;2022-11-15T05:15:02;99815.63;;;8.26;83.21
75231;BME280;63814;50.118;8.714;2022-11-15T05:17:29;99812.06;;;8.27;82.97
75231;BME280;63814;50.118;8.714;2022-11-15T05:19:55;99808.53;;;8.28;83.13
75231;BME280;63814;50.118;8.714;2022-11-15T05:22:22;99807.66;;;8.28;82.93
75231;BME280;63814;50.118;8.714;2022-11-15T05:24:50;99812.06;;;8.27;83.21
75231;BME280;63814;50.118;8.714;2022-11-15T05:27:16;99825.13;;;8.27;83.13
75231;BME280;63814;50.118;8.714;2022-11-15T05:29:43;99819.56;;;8.34;82.49
75231;BME280;63814;50.118;8.714;2022-11-15T05:32:11;99815.50;;;8.28;82.95
75231;BME280;63814;50.118;8.714;2022-11-15T05:34:38;99781.56;;;8.12;83.00
75231;BME280;63814;50.118;8.714;2022-11-15T05:37:05;99808.69;;;8.25;83.05
75231;BME280;63814;50.118;8.714;2022-11-15T05:39:31;99806.16;;;8.24;83.15
75231;BME280;63814;50.118;8.714;2022-11-15T05:42:02;99801.94;;;8.21;82.89
75231;BME280;63814;50.118;8.714;2022-11-15T05:44:31;99798.41;;;8.22;82.82
75231;BME280;63814;50.118;8.714;2022-11-15T05:46:58;99802.28;;;8.15;83.43
75231;BME280;63814;50.118;8.714;2022-11-15T05:49:26;99807.50;;;8.15;83.43
75231;BME280;63814;50.118;8.714;2022-11-15T05:51:56;99804.16;;;8.13;83.69
75231;BME280;63814;50.118;8.714;2022-11-15T05:54:24;99798.00;;;8.14;83.44
75231;BME280;63814;50.118;8.714;2022-11-15T05:56:51;99794.28;;;8.18;83.15
75231;BME280;63814;50.118;8.714;2022-11-15T05:59:19;99787.63;;;8.28;83.16
75231;BME280;63814;50.118;8.714;2022-11-15T06:01:46;99788.81;;;8.23;82.88
75231;BME280;63814;50.118;8.714;2022-11-15T06:04:13;99790.91;;;8.16;83.73
75231;BME280;63814;50.118;8.714;2022-11-15T06:06:39;99791.84;;;8.15;83.59
75231;BME280;63814;50.118;8.714;2022-11-15T06:09:06;99792.78;;;8.14;83.65
75231;BME280;63814;50.118;8.714;2022-11-15T06:11:32;99786.78;;;8.12;83.64
75231;BME280;63814;50.118;8.714;2022-11-15T06:13:59;99797.81;;;8.17;83.79
75231;BME280;63814;50.118;8.714;2022-11-15T06:16:26;99796.06;;;8.17;83.89
75231;BME280;63814;50.118;8.714;2022-11-15T06:18:53;99797.06;;;8.15;83.94
75231;BME280;63814;50.118;8.714;2022-11-15T06:21:20;99801.94;;;8.21;83.96
75231;BME280;63814;50.118;8.714;2022-11-15T06:23:46;99791.31;;;8.24;83.51
75231;BME280;63814;50.118;8.714;2022-11-15T06:26:13;99797.16;;;8.29;83.53
75231;BME280;63814;50.118;8.714;2022-11-15T06:28:39;99787.28;;;8.35;83.47
75231;BME280;63814;50.118;8.714;2022-11-15T06:31:07;99797.41;;;8.41;83.26
75231;BME280;63814;50.118;8.714;2022-11-15T06:33:35;99795.09;;;8.51;82.90
75231;BME280;63814;50.118;8.714;2022-11-15T06:36:01;99801.25;;;8.50;83.04
75231;BME280;63814;50.118;8.714;2022-11-15T06:38:28;99794.53;;;8.45;83.17
75231;BME280;63814;50.118;8.714;2022-11-15T06:40:54;99803.47;;;8.41;83.54
75231;BME280;63814;50.118;8.714;2022-11-15T06:43:21;99796.75;;;8.37;83.66
75231;BME280;63814;50.118;8.714;2022-11-15T06:45:48;99805.13;;;8.42;83.73
75231;BME280;63814;50.118;8.714;2022-11-15T06:48:14;99809.34;;;8.45;83.46
75231;BME280;63814;50.118;8.714;2022-11-15T06:50:42;99803.13;;;8.48;83.02
75231;BME280;63814;50.118;8.714;2022-11-15T06:53:08;99799.44;;;8.52;82.98
75231;BME280;63814;50.118;8.714;2022-11-15T06:55:35;99804.31;;;8.58;82.65
75231;BME280;63814;50.118;8.714;2022-11-15T06:58:01;99802.56;;;8.58;82.87
75231;BME280;63814;50.118;8.714;2022-11-15T07:00:28;99766.72;;;8.44;83.21
75231;BME280;63814;50.118;8.714;2022-11-15T07:02:54;99802.47;;;8.60;83.13
75231;BME280;63814;50.118;8.714;2022-11-15T07:05:21;99805.84;;;8.62;83.25
75231;BME280;63814;50.118;8.714;2022-11-15T07:07:55;99798.75;;;8.64;82.97
75231;BME280;63814;50.118;8.714;2022-11-15T07:10:23;99795.13;;;8.67;82.53
75231;BME280;63814;50.118;8.714;2022-11-15T07:12:50;99807.66;;;8.76;82.26
75231;BME280;63814;50.118;8.714;2022-11-15T07:15:18;99805.16;;;8.75;82.60
75231;BME280;63814;50.118;8.714;2022-11-15T07:17:45;99805.97;;;8.75;82.09
75231;BME280;63814;50.118;8.714;2022-11-15T07:20:12;99805.41;;;8.70;82.19
75231;BME280;63814;50.118;8.714;2022-11-15T07:22:39;99815.94;;;8.84;81.68
75231;BME280;63814;50.118;8.714;2022-11-15T07:25:08;99820.81;;;8.91;81.35
75231;BME280;63814;50.118;8.714;2022-11-15T07:27:35;99808.13;;;8.99;81.41
75231;BME280;63814;50.118;8.714;2022-11-15T07:30:02;99812.34;;;9.02;80.91
75231;BME280;63814;50.118;8.714;2022-11-15T07:32:28;99818.53;;;9.15;80.63
75231;BME280;63814;50.118;8.714;2022-11-15T07:34:55;99813.03;;;9.20;80.35
75231;BME280;63814;50.118;8.714;2022-11-15T07:37:21;99812.13;;;9.21;80.32
75231;BME280;63814;50.118;8.714;2022-11-15T07:39:48;99805.47;;;9.30;80.05
75231;BME280;63814;50.118;8.714;2022-11-15T07:42:16;99811.13;;;9.38;79.60
75231;BME280;63814;50.118;8.714;2022-11-15T07:45:00;99806.44;;;9.43;79.21
75231;BME280;63814;50.118;8.714;2022-11-15T07:47:28;99807.66;;;9.37;79.22
75231;BME280;63814;50.118;8.714;2022-11-15T07:49:54;99803.06;;;9.41;79.36
75231;BME280;63814;50.118;8.714;2022-11-15T07:52:21;99798.69;;;9.41;79.24
75231;BME280;63814;50.118;8.714;2022-11-15T07:54:47;99798.41;;;9.46;79.31
75231;BME280;63814;50.118;8.714;2022-11-15T07:57:15;99799.81;;;9.52;79.27
75231;BME280;63814;50.118;8.714;2022-11-15T07:59:42;99804.84;;;9.55;79.18
75231;BME280;63814;50.118;8.714;2022-11-15T08:02:09;99800.28;;;9.59;79.29
75231;BME280;63814;50.118;8.714;2022-11-15T08:04:35;99801.69;;;9.64;79.00
75231;BME280;63814;50.118;8.714;2022-11-15T08:07:02;99795.88;;;9.59;78.93
75231;BME280;63814;50.118;8.714;2022-11-15T08:09:28;99801.41;;;9.69;78.96
75231;BME280;63814;50.118;8.714;2022-11-15T08:11:55;99741.28;;;9.38;79.08
75231;BME280;63814;50.118;8.714;2022-11-15T08:14:23;99803.47;;;9.78;78.53
75231;BME280;63814;50.118;8.714;2022-11-15T08:16:49;99802.34;;;9.82;78.29
75231;BME280;63814;50.118;8.714;2022-11-15T08:19:16;99802.81;;;9.89;78.33
75231;BME280;63814;50.118;8.714;2022-11-15T08:21:42;99801.47;;;9.96;78.58
75231;BME280;63814;50.118;8.714;2022-11-15T08:24:09;99784.47;;;9.89;77.41
75231;BME280;63814;50.118;8.714;2022-11-15T08:26:36;99812.16;;;10.08;77.00
75231;BME280;63814;50.118;8.714;2022-11-15T08:29:03;99801.28;;;10.14;77.32
75231;BME280;63814;50.118;8.714;2022-11-15T08:31:31;99801.09;;;10.17;76.88
75231;BME280;63814;50.118;8.714;2022-11-15T08:33:57;99804.25;;;10.22;76.54
75231;BME280;63814;50.118;8.714;2022-11-15T08:36:24;99812.28;;;10.19;75.47
75231;BME280;63814;50.118;8.714;2022-11-15T08:38:50;99802.13;;;10.15;75.24
75231;BME280;63814;50.118;8.714;2022-11-15T08:41:23;99800.34;;;10.15;76.09
75231;BME280;63814;50.118;8.714;2022-11-15T08:43:50;99798.09;;;10.09;75.71
75231;BME280;63814;50.118;8.714;2022-11-15T08:46:17;99803.78;;;10.16;76.27
75231;BME280;63814;50.118;8.714;2022-11-15T08:48:45;99798.06;;;10.23;75.83
75231;BME280;63814;50.118;8.714;2022-11-15T08:51:12;99794.81;;;10.20;75.45
75231;BME280;63814;50.118;8.714;2022-11-15T08:53:38;99797.88;;;10.27;75.85
75231;BME280;63814;50.118;8.714;2022-11-15T08:56:07;99794.78;;;10.34;76.49
75231;BME280;63814;50.118;8.714;2022-11-15T08:58:33;99782.53;;;10.35;76.42
75231;BME280;63814;50.118;8.714;2022-11-15T09:01:00;99784.72;;;10.41;76.81
75231;BME280;63814;50.118;8.714;2022-11-15T09:03:27;99786.16;;;10.47;76.12
75231;BME280;63814;50.118;8.714;2022-11-15T09:05:56;99783.88;;;10.55;75.83
75231;BME280;63814;50.118;8.714;2022-11-15T09:08:23;99794.28;;;10.57;75.41
75231;BME280;63814;50.118;8.714;2022-11-15T09:10:50;99790.03;;;10.69;75.36
75231;BME280;63814;50.118;8.714;2022-11-15T09:13:16;99788.13;;;10.71;74.94
75231;BME280;63814;50.118;8.714;2022-11-15T09:15:43;99787.13;;;10.86;74.18
75231;BME280;63814;50.118;8.714;2022-11-15T09:18:09;99782.56;;;11.03;73.49
75231;BME280;63814;50.118;8.714;2022-11-15T09:20:36;99772.25;;;11.00;72.45
75231;BME280;63814;50.118;8.714;2022-11-15T09:23:04;99782.66;;;11.27;72.54
75231;BME280;63814;50.118;8.714;2022-11-15T09:25:31;99776.91;;;11.22;72.02
75231;BME280;63814;50.118;8.714;2022-11-15T09:27:58;99775.44;;;11.44;72.18
75231;BME280;63814;50.118;8.714;2022-11-15T09:30:25;99771.31;;;11.66;71.00
75231;BME280;63814;50.118;8.714;2022-11-15T09:32:51;99764.28;;;11.66;69.75
75231;BME280;63814;50.118;8.714;2022-11-15T09:35:18;99760.91;;;11.77;70.38
75231;BME280;63814;50.118;8.714;2022-11-15T09:37:44;99767.53;;;11.70;70.58
75231;BME280;63814;50.118;8.714;2022-11-15T09:40:14;99763.44;;;11.66;71.43
75231;BME280;63814;50.118;8.714;2022-11-15T09:43:06;99773.53;;;11.72;70.93
75231;BME280;63814;50.118;8.714;2022-11-15T09:45:43;99767.66;;;11.68;71.74
75231;BME280;63814;50.118;8.714;2022-11-15T09:51:29;99770.41;;;11.54;72.78
75231;BME280;63814;50.118;8.714;2022-11-15T09:54:03;99764.28;;;11.66;72.90
75231;BME280;63814;50.118;8.714;2022-11-15T09:56:35;99754.16;;;11.86;72.49
75231;BME280;63814;50.118;8.714;2022-11-15T09:59:23;99747.19;;;12.11;71.98
75231;BME280;63814;50.118;8.714;2022-11-15T10:01:57;99749.19;;;12.32;71.27
75231;BME280;63814;50.118;8.714;2022-11-15T10:04:27;99738.66;;;12.45;70.76
75231;BME280;63814;50.118;8.714;2022-11-15T10:06:59;99736.72;;;12.71;70.60
75231;BME280;63814;50.118;8.714;2022-11-15T10:09:33;99738.22;;;13.09;69.09
75231;BME280;63814;50.118;8.714;2022-11-15T10:12:03;99652.59;;;13.05;68.04
75231;BME280;63814;50.118;8.714;2022-11-15T10:14:30;99732.41;;;13.97;67.02
75231;BME280;63814;50.118;8.714;2022-11-15T10:17:17;99729.13;;;14.16;64.09
75231;BME280;63814;50.118;8.714;2022-11-15T10:19:54;99724.69;;;14.17;64.13
75231;BME280;63814;50.118;8.714;2022-11-15T10:22:27;99712.47;;;14.16;64.49
75231;BME280;63814;50.118;8.714;2022-11-15T10:25:13;99709.28;;;14.34;64.65
75231;BME280;63814;50.118;8.714;2022-11-15T10:27:47;99701.25;;;14.35;63.91
75231;BME280;63814;50.118;8.714;2022-11-15T10:30:17;99710.34;;;14.10;63.58
75231;BME280;63814;50.118;8.714;2022-11-15T10:32:46;99694.91;;;14.05;64.46
75231;BME280;63814;50.118;8.714;2022-11-15T10:35:21;99702.88;;;13.71;65.07
75231;BME280;63814;50.118;8.714;2022-11-15T10:37:48;99696.28;;;13.54;66.28
75231;BME280;63814;50.118;8.714;2022-11-15T10:40:18;99699.03;;;13.41;67.43
75231;BME280;63814;50.118;8.714;2022-11-15T10:42:47;99711.81;;;13.34;67.35
75231;BME280;63814;50.118;8.714;2022-11-15T10:45:26;99694.69;;;13.17;66.90
75231;BME280;63814;50.118;8.714;2022-11-15T10:47:53;99697.44;;;13.04;67.23
75231;BME280;63814;50.118;8.714;2022-11-15T10:50:29;99690.25;;;12.94;67.15
75231;BME280;63814;50.118;8.714;2022-11-15T10:52:56;99696.22;;;12.97;67.11
75231;BME280;63814;50.118;8.714;2022-11-15T10:55:26;99689.44;;;13.28;66.75
75231;BME280;63814;50.118;8.714;2022-11-15T10:57:59;99686.56;;;13.43;65.70
75231;BME280;63814;50.118;8.714;2022-11-15T11:00:32;99689.84;;;13.46;66.01
75231;BME280;63814;50.118;8.714;2022-11-15T11:03:00;99679.50;;;13.20;66.14
75231;BME280;63814;50.118;8.714;2022-11-15T11:05:29;99671.56;;;12.75;67.66
75231;BME280;63814;50.118;8.714;2022-11-15T11:07:59;99668.69;;;12.66;68.32
75231;BME280;63814;50.118;8.714;2022-11-15T11:10:27;99644.50;;;12.61;68.16
75231;BME280;63814;50.118;8.714;2022-11-15T11:12:55;99651.69;;;12.71;68.21
75231;BME280;63814;50.118;8.714;2022-11-15T11:15:24;99648.94;;;12.72;68.61
75231;BME280;63814;50.118;8.714;2022-11-15T11:17:59;99645.50;;;12.72;68.64
75231;BME280;63814;50.118;8.714;2022-11-15T11:20:33;99646.44;;;12.71;68.99
75231;BME280;63814;50.118;8.714;2022-11-15T11:23:11;99631.88;;;12.89;68.96
75231;BME280;63814;50.118;8.714;2022-11-15T11:25:46;99624.69;;;13.37;67.28
75231;BME280;63814;50.118;8.714;2022-11-15T11:28:33;99636.88;;;14.38;64.48
75231;BME280;63814;50.118;8.714;2022-11-15T11:31:14;99625.78;;;14.77;62.15
75231;BME280;63814;50.118;8.714;2022-11-15T11:33:48;99626.66;;;14.66;62.58
75231;BME280;63814;50.118;8.714;2022-11-15T11:36:24;99621.31;;;14.77;62.07
75231;BME280;63814;50.118;8.714;2022-11-15T11:39:18;99614.78;;;14.60;63.58
75231;BME280;63814;50.118;8.714;2022-11-15T11:41:55;99612.06;;;15.24;61.06
75231;BME280;63814;50.118;8.714;2022-11-15T11:44:32;99596.94;;;15.36;60.14
75231;BME280;63814;50.118;8.714;2022-11-15T11:47:00;99598.78;;;15.55;59.78
75231;BME280;63814;50.118;8.714;2022-11-15T11:49:33;99611.44;;;14.79;61.03
75231;BME280;63814;50.118;8.714;2022-11-15T11:52:09;99569.31;;;14.04;63.41
75231;BME280;63814;50.118;8.714;2022-11-15T11:54:42;99607.72;;;14.18;63.77
75231;BME280;63814;50.118;8.714;2022-11-15T11:57:17;99602.38;;;13.75;64.93
75231;BME280;63814;50.118;8.714;2022-11-15T11:59:53;99593.72;;;13.85;64.77
75231;BME280;63814;50.118;8.714;2022-11-15T12:02:28;99596.91;;;13.56;66.07
75231;BME280;63814;50.118;8.714;2022-11-15T12:05:03;99595.16;;;13.77;65.71
75231;BME280;63814;50.118;8.714;2022-11-15T12:07:32;99587.44;;;13.97;65.37
75231;BME280;63814;50.118;8.714;2022-11-15T12:10:04;99575.25;;;13.85;65.51
75231;BME280;63814;50.118;8.714;2022-11-15T12:12:42;99577.00;;;13.96;65.31
75231;BME280;63814;50.118;8.714;2022-11-15T12:15:16;99572.66;;;14.27;63.92
75231;BME280;63814;50.118;8.714;2022-11-15T12:17:43;99570.50;;;14.64;63.37
75231;BME280;63814;50.118;8.714;2022-11-15T12:20:16;99553.22;;;15.02;62.12
75231;BME280;63814;50.118;8.714;2022-11-15T12:22:53;99555.13;;;14.69;62.58
75231;BME280;63814;50.118;8.714;2022-11-15T12:25:23;99553.81;;;14.53;63.77
75231;BME280;63814;50.118;8.714;2022-11-15T12:27:55;99552.13;;;14.74;62.97
75231;BME280;63814;50.118;8.714;2022-11-15T12:30:26;99544.03;;;15.06;62.68
75231;BME280;63814;50.118;8.714;2022-11-15T12:32:56;99545.81;;;14.65;63.22
75231;BME280;63814;50.118;8.714;2022-11-15T12:35:27;99533.84;;;14.61;64.20
75231;BME280;63814;50.118;8.714;2022-11-15T12:37:55;99531.03;;;14.52;64.22
75231;BME280;63814;50.118;8.714;2022-11-15T12:40:30;99522.00;;;14.24;65.33
75231;BME280;63814;50.118;8.714;2022-11-15T12:43:00;99527.53;;;14.21;65.70
75231;BME280;63814;50.118;8.714;2022-11-15T12:45:31;99534.03;;;13.95;66.00
75231;BME280;63814;50.118;8.714;2022-11-15T12:54:53;99542.09;;;13.38;68.60
75231;BME280;63814;50.118;8.714;2022-11-15T12:57:30;99532.22;;;13.19;68.73
75231;BME280;63814;50.118;8.714;2022-11-15T12:59:58;99538.06;;;13.22;69.46
75231;BME280;63814;50.118;8.714;2022-11-15T13:02:28;99524.53;;;13.27;68.89
75231;BME280;63814;50.118;8.714;2022-11-15T13:05:27;99522.13;;;13.35;68.78
75231;BME280;63814;50.118;8.714;2022-11-15T13:08:07;99518.53;;;13.36;68.86
75231;BME280;63814;50.118;8.714;2022-11-15T13:10:34;99483.16;;;13.18;68.44
75231;BME280;63814;50.118;8.714;2022-11-15T13:13:02;99510.50;;;13.49;68.55
75231;BME280;63814;50.118;8.714;2022-11-15T13:15:51;99506.44;;;13.45;69.80
75231;BME280;63814;50.118;8.714;2022-11-15T13:18:35;99503.22;;;13.30;69.52
75231;BME280;63814;50.118;8.714;2022-11-15T13:21:03;99502.03;;;13.23;69.56
75231;BME280;63814;50.118;8.714;2022-11-15T13:23:54;99503.88;;;13.11;70.31
75231;BME280;63814;50.118;8.714;2022-11-15T13:26:21;99506.72;;;13.19;69.66
75231;BME280;63814;50.118;8.714;2022-11-15T13:28:50;99501.72;;;13.16;70.13
75231;BME280;63814;50.118;8.714;2022-11-15T13:31:26;99493.34;;;13.11;70.12
75231;BME280;63814;50.118;8.714;2022-11-15T13:33:57;99490.22;;;13.06;70.06
75231;BME280;63814;50.118;8.714;2022-11-15T13:36:26;99487.59;;;13.06;70.40